sensor_id;sensor_type;location;lat;lon;timestamp;pressure;altitude;pressure_sealevel;temperature;humidity
76311;BME280;76681;59.304;18.294;2024-02-21T00:00:54;101079.41;;;0.42;76.12
76311;BME280;76681;59.304;18.294;2024-02-21T00:03:21;101075.09;;;0.41;75.62
76311;BME280;76681;59.304;18.294;2024-02-21T00:05:48;101079.41;;;0.42;75.50
76311;BME280;76681;59.304;18.294;2024-02-21T00:08:16;101085.44;;;0.43;76.05
76311;BME280;76681;59.304;18.294;2024-02-21T00:10:43;101075.16;;;0.43;75.81
76311;BME280;76681;59.304;18.294;2024-02-21T00:13:10;101073.44;;;0.43;75.77
76311;BME280;76681;59.304;18.294;2024-02-21T00:15:37;101071.69;;;0.42;75.82
76311;BME280;76681;59.304;18.294;2024-02-21T00:18:04;101070.88;;;0.43;75.75
76311;BME280;76681;59.304;18.294;2024-02-21T00:20:31;101065.72;;;0.43;75.40
76311;BME280;76681;59.304;18.294;2024-02-21T00:22:58;101065.72;;;0.43;75.90
76311;BME280;76681;59.304;18.294;2024-02-21T00:25:26;101059.69;;;0.43;75.81
76311;BME280;76681;59.304;18.294;2024-02-21T00:27:53;101054.56;;;0.43;76.04
76311;BME280;76681;59.304;18.294;2024-02-21T00:30:20;101052.81;;;0.42;75.32
76311;BME280;76681;59.304;18.294;2024-02-21T00:32:47;101048.50;;;0.42;75.57
76311;BME280;76681;59.304;18.294;2024-02-21T00:35:14;101055.38;;;0.42;75.59
76311;BME280;76681;59.304;18.294;2024-02-21T00:37:41;101051.94;;;0.41;75.82
76311;BME280;76681;59.304;18.294;2024-02-21T00:40:08;101040.78;;;0.41;75.72
76311;BME280;76681;59.304;18.294;2024-02-21T00:42:37;101046.78;;;0.41;75.78
76311;BME280;76681;59.304;18.294;2024-02-21T00:45:04;101037.34;;;0.40;76.03
76311;BME280;76681;59.304;18.294;2024-02-21T00:47:32;101035.63;;;0.41;75.83
76311;BME280;76681;59.304;18.294;2024-02-21T00:49:59;101029.63;;;0.40;75.95
76311;BME280;76681;59.304;18.294;2024-02-21T00:52:25;101022.69;;;0.39;75.63
76311;BME280;76681;59.304;18.294;2024-02-21T00:54:52;101024.47;;;0.40;76.25
76311;BME280;76681;59.304;18.294;2024-02-21T00:57:19;101029.63;;;0.40;75.58
76311;BME280;76681;59.304;18.294;2024-02-21T00:59:48;101024.47;;;0.40;75.72
76311;BME280;76681;59.304;18.294;2024-02-21T01:02:14;101021.03;;;0.40;76.01
76311;BME280;76681;59.304;18.294;2024-02-21T01:04:41;101019.31;;;0.40;75.99
76311;BME280;76681;59.304;18.294;2024-02-21T01:07:08;101020.19;;;0.41;76.31
76311;BME280;76681;59.304;18.294;2024-02-21T01:09:35;101015.91;;;0.41;75.84
76311;BME280;76681;59.304;18.294;2024-02-21T01:12:02;101015.91;;;0.41;76.27
76311;BME280;76681;59.304;18.294;2024-02-21T01:14:29;101005.59;;;0.41;76.04
76311;BME280;76681;59.304;18.294;2024-02-21T01:16:57;100996.16;;;0.42;75.73
76311;BME280;76681;59.304;18.294;2024-02-21T01:19:24;100996.22;;;0.43;75.71
76311;BME280;76681;59.304;18.294;2024-02-21T01:21:51;100985.91;;;0.43;75.81
76311;BME280;76681;59.304;18.294;2024-02-21T01:24:18;100969.63;;;0.43;75.81
76311;BME280;76681;59.304;18.294;2024-02-21T01:26:45;100961.97;;;0.46;75.83
76311;BME280;76681;59.304;18.294;2024-02-21T01:29:12;100953.31;;;0.44;76.02
76311;BME280;76681;59.304;18.294;2024-02-21T01:31:39;100952.47;;;0.45;75.88
76311;BME280;76681;59.304;18.294;2024-02-21T01:34:07;100939.59;;;0.43;76.10
76311;BME280;76681;59.304;18.294;2024-02-21T01:36:35;100944.75;;;0.45;76.44
76311;BME280;76681;59.304;18.294;2024-02-21T01:39:02;100937.94;;;0.47;76.09
76311;BME280;76681;59.304;18.294;2024-02-21T01:41:29;100933.66;;;0.47;75.84
76311;BME280;76681;59.304;18.294;2024-02-21T01:43:56;100929.34;;;0.46;75.85
76311;BME280;76681;59.304;18.294;2024-02-21T01:46:23;100927.63;;;0.47;75.94
76311;BME280;76681;59.304;18.294;2024-02-21T01:48:54;100913.00;;;0.44;75.72
76311;BME280;76681;59.304;18.294;2024-02-21T01:51:22;100917.38;;;0.48;76.22
76311;BME280;76681;59.304;18.294;2024-02-21T01:53:51;100913.09;;;0.49;75.87
76311;BME280;76681;59.304;18.294;2024-02-21T01:56:18;100901.09;;;0.49;75.94
76311;BME280;76681;59.304;18.294;2024-02-21T01:58:46;100901.09;;;0.49;75.82
76311;BME280;76681;59.304;18.294;2024-02-21T02:01:15;100901.09;;;0.49;76.34
76311;BME280;76681;59.304;18.294;2024-02-21T02:03:45;100897.69;;;0.50;76.41
76311;BME280;76681;59.304;18.294;2024-02-21T02:06:12;100889.94;;;0.49;76.00
76311;BME280;76681;59.304;18.294;2024-02-21T02:08:41;100896.84;;;0.51;76.48
76311;BME280;76681;59.304;18.294;2024-02-21T02:11:08;100888.28;;;0.51;76.01
76311;BME280;76681;59.304;18.294;2024-02-21T02:13:35;100892.56;;;0.52;76.28
76311;BME280;76681;59.304;18.294;2024-02-21T02:16:03;100884.84;;;0.52;76.33
76311;BME280;76681;59.304;18.294;2024-02-21T02:18:30;100883.13;;;0.52;76.44
76311;BME280;76681;59.304;18.294;2024-02-21T02:20:57;100885.72;;;0.52;76.75
76311;BME280;76681;59.304;18.294;2024-02-21T02:23:26;100877.13;;;0.53;76.43
76311;BME280;76681;59.304;18.294;2024-02-21T02:25:53;100859.13;;;0.53;76.18
76311;BME280;76681;59.304;18.294;2024-02-21T02:28:20;100851.41;;;0.53;76.01
76311;BME280;76681;59.304;18.294;2024-02-21T02:30:48;100853.16;;;0.54;76.49
76311;BME280;76681;59.304;18.294;2024-02-21T02:33:15;100847.13;;;0.54;76.33
76311;BME280;76681;59.304;18.294;2024-02-21T02:35:43;100824.72;;;0.50;76.49
76311;BME280;76681;59.304;18.294;2024-02-21T02:38:10;100835.13;;;0.54;76.85
76311;BME280;76681;59.304;18.294;2024-02-21T02:40:40;100839.44;;;0.55;76.46
76311;BME280;76681;59.304;18.294;2024-02-21T02:43:07;100833.38;;;0.52;76.44
76311;BME280;76681;59.304;18.294;2024-02-21T02:45:34;100842.84;;;0.54;76.46
76311;BME280;76681;59.304;18.294;2024-02-21T02:48:01;100844.56;;;0.55;76.54
76311;BME280;76681;59.304;18.294;2024-02-21T02:50:28;100849.72;;;0.55;76.76
76311;BME280;76681;59.304;18.294;2024-02-21T02:52:55;100837.72;;;0.56;76.82
76311;BME280;76681;59.304;18.294;2024-02-21T02:55:22;100832.63;;;0.57;77.02
76311;BME280;76681;59.304;18.294;2024-02-21T02:57:50;100830.03;;;0.57;76.64
76311;BME280;76681;59.304;18.294;2024-02-21T03:00:17;100828.28;;;0.56;76.77
76311;BME280;76681;59.304;18.294;2024-02-21T03:02:46;100825.72;;;0.56;76.67
76311;BME280;76681;59.304;18.294;2024-02-21T03:05:16;100824.88;;;0.57;76.66
76311;BME280;76681;59.304;18.294;2024-02-21T03:07:43;100828.31;;;0.58;76.93
76311;BME280;76681;59.304;18.294;2024-02-21T03:10:11;100827.41;;;0.56;76.66
76311;BME280;76681;59.304;18.294;2024-02-21T03:12:38;100824.09;;;0.60;76.75
76311;BME280;76681;59.304;18.294;2024-02-21T03:15:07;100816.34;;;0.60;77.13
76311;BME280;76681;59.304;18.294;2024-02-21T03:17:34;100824.94;;;0.62;76.90
76311;BME280;76681;59.304;18.294;2024-02-21T03:20:01;100819.81;;;0.62;77.13
76311;BME280;76681;59.304;18.294;2024-02-21T03:22:30;100821.56;;;0.63;77.02
76311;BME280;76681;59.304;18.294;2024-02-21T03:24:57;100812.03;;;0.59;76.95
76311;BME280;76681;59.304;18.294;2024-02-21T03:27:24;100812.13;;;0.64;77.27
76311;BME280;76681;59.304;18.294;2024-02-21T03:29:51;100807.84;;;0.64;77.45
76311;BME280;76681;59.304;18.294;2024-02-21T03:32:19;100804.44;;;0.65;76.78
76311;BME280;76681;59.304;18.294;2024-02-21T03:34:46;100803.59;;;0.68;77.14
76311;BME280;76681;59.304;18.294;2024-02-21T03:37:13;100788.13;;;0.66;76.95
76311;BME280;76681;59.304;18.294;2024-02-21T03:39:40;100791.56;;;0.67;77.23
76311;BME280;76681;59.304;18.294;2024-02-21T03:42:07;100789.91;;;0.69;76.83
76311;BME280;76681;59.304;18.294;2024-02-21T03:44:34;100770.94;;;0.64;76.86
76311;BME280;76681;59.304;18.294;2024-02-21T03:47:01;100777.03;;;0.70;77.18
76311;BME280;76681;59.304;18.294;2024-02-21T03:49:29;100776.22;;;0.71;77.53
76311;BME280;76681;59.304;18.294;2024-02-21T03:51:56;100770.22;;;0.72;77.60
76311;BME280;76681;59.304;18.294;2024-02-21T03:54:23;100765.06;;;0.72;77.26
76311;BME280;76681;59.304;18.294;2024-02-21T03:56:50;100766.78;;;0.73;76.81
76311;BME280;76681;59.304;18.294;2024-02-21T03:59:17;100761.69;;;0.75;77.26
76311;BME280;76681;59.304;18.294;2024-02-21T04:01:44;100756.53;;;0.75;77.27
76311;BME280;76681;59.304;18.294;2024-02-21T04:04:11;100749.66;;;0.75;77.47
76311;BME280;76681;59.304;18.294;2024-02-21T04:06:47;100754.84;;;0.77;77.25
76311;BME280;76681;59.304;18.294;2024-02-21T04:09:14;100754.00;;;0.78;76.95
76311;BME280;76681;59.304;18.294;2024-02-21T04:11:41;100750.56;;;0.79;77.36
76311;BME280;76681;59.304;18.294;2024-02-21T04:14:07;100745.44;;;0.79;77.09
76311;BME280;76681;59.304;18.294;2024-02-21T04:16:36;100745.44;;;0.79;77.43
76311;BME280;76681;59.304;18.294;2024-02-21T04:19:03;100741.19;;;0.81;77.37
76311;BME280;76681;59.304;18.294;2024-02-21T04:21:30;100743.78;;;0.83;77.37
76311;BME280;76681;59.304;18.294;2024-02-21T04:23:58;100733.50;;;0.84;77.74
76311;BME280;76681;59.304;18.294;2024-02-21T04:26:26;100736.06;;;0.84;77.23
76311;BME280;76681;59.304;18.294;2024-02-21T04:28:53;100728.34;;;0.84;77.34
76311;BME280;76681;59.304;18.294;2024-02-21T04:31:20;100719.81;;;0.85;77.69
76311;BME280;76681;59.304;18.294;2024-02-21T04:33:47;100706.06;;;0.86;77.28
76311;BME280;76681;59.304;18.294;2024-02-21T04:36:14;100706.06;;;0.86;77.09
76311;BME280;76681;59.304;18.294;2024-02-21T04:38:41;100708.66;;;0.86;77.26
76311;BME280;76681;59.304;18.294;2024-02-21T04:41:09;100713.78;;;0.86;77.22
76311;BME280;76681;59.304;18.294;2024-02-21T04:43:36;100703.50;;;0.88;77.50
76311;BME280;76681;59.304;18.294;2024-02-21T04:46:04;100685.41;;;0.83;77.42
76311;BME280;76681;59.304;18.294;2024-02-21T04:48:31;100700.97;;;0.89;77.42
76311;BME280;76681;59.304;18.294;2024-02-21T04:50:58;100698.44;;;0.91;77.22
76311;BME280;76681;59.304;18.294;2024-02-21T04:53:25;100696.72;;;0.91;77.38
76311;BME280;76681;59.304;18.294;2024-02-21T04:55:51;100694.13;;;0.93;77.87
76311;BME280;76681;59.304;18.294;2024-02-21T04:58:20;100696.75;;;0.94;77.80
76311;BME280;76681;59.304;18.294;2024-02-21T05:00:47;100676.88;;;0.87;77.65
76311;BME280;76681;59.304;18.294;2024-02-21T05:03:13;100687.31;;;0.95;77.60
76311;BME280;76681;59.304;18.294;2024-02-21T05:05:40;100670.13;;;0.95;77.78
76311;BME280;76681;59.304;18.294;2024-02-21T05:08:07;100678.75;;;0.97;77.80
76311;BME280;76681;59.304;18.294;2024-02-21T05:10:36;100676.19;;;0.97;77.17
76311;BME280;76681;59.304;18.294;2024-02-21T05:13:03;100662.44;;;0.98;77.89
76311;BME280;76681;59.304;18.294;2024-02-21T05:15:31;100662.50;;;1.00;77.27
76311;BME280;76681;59.304;18.294;2024-02-21T05:17:58;100661.63;;;0.99;77.69
76311;BME280;76681;59.304;18.294;2024-02-21T05:20:25;100654.75;;;1.01;77.41
76311;BME280;76681;59.304;18.294;2024-02-21T05:22:52;100653.06;;;1.02;77.90
76311;BME280;76681;59.304;18.294;2024-02-21T05:25:19;100652.22;;;1.03;77.96
76311;BME280;76681;59.304;18.294;2024-02-21T05:27:46;100652.22;;;1.05;77.66
76311;BME280;76681;59.304;18.294;2024-02-21T05:30:13;100648.84;;;1.07;77.78
76311;BME280;76681;59.304;18.294;2024-02-21T05:32:41;100644.50;;;1.05;77.67
76311;BME280;76681;59.304;18.294;2024-02-21T05:35:08;100647.16;;;1.09;77.51
76311;BME280;76681;59.304;18.294;2024-02-21T05:37:35;100632.50;;;1.05;77.70
76311;BME280;76681;59.304;18.294;2024-02-21T05:40:02;100641.19;;;1.12;78.25
76311;BME280;76681;59.304;18.294;2024-02-21T05:42:29;100632.59;;;1.13;77.88
76311;BME280;76681;59.304;18.294;2024-02-21T05:44:56;100624.03;;;1.14;77.73
76311;BME280;76681;59.304;18.294;2024-02-21T05:47:23;100622.31;;;1.16;77.67
76311;BME280;76681;59.304;18.294;2024-02-21T05:49:51;100621.50;;;1.17;77.89
76311;BME280;76681;59.304;18.294;2024-02-21T05:52:19;100617.22;;;1.19;77.99
76311;BME280;76681;59.304;18.294;2024-02-21T05:54:46;100612.94;;;1.19;77.83
76311;BME280;76681;59.304;18.294;2024-02-21T05:57:16;100613.78;;;1.18;78.21
76311;BME280;76681;59.304;18.294;2024-02-21T05:59:43;100615.56;;;1.22;77.94
76311;BME280;76681;59.304;18.294;2024-02-21T06:02:10;100611.28;;;1.24;77.80
76311;BME280;76681;59.304;18.294;2024-02-21T06:04:37;100606.16;;;1.26;78.19
76311;BME280;76681;59.304;18.294;2024-02-21T06:07:06;100603.56;;;1.26;78.09
76311;BME280;76681;59.304;18.294;2024-02-21T06:09:33;100594.97;;;1.27;77.92
76311;BME280;76681;59.304;18.294;2024-02-21T06:12:00;100592.41;;;1.27;78.15
76311;BME280;76681;59.304;18.294;2024-02-21T06:14:27;100589.88;;;1.30;77.99
76311;BME280;76681;59.304;18.294;2024-02-21T06:16:53;100587.31;;;1.32;77.73
76311;BME280;76681;59.304;18.294;2024-02-21T06:19:20;100587.31;;;1.33;78.02
76311;BME280;76681;59.304;18.294;2024-02-21T06:21:47;100586.50;;;1.34;78.30
76311;BME280;76681;59.304;18.294;2024-02-21T06:24:15;100582.19;;;1.35;78.52
76311;BME280;76681;59.304;18.294;2024-02-21T06:26:42;100579.66;;;1.36;78.43
76311;BME280;76681;59.304;18.294;2024-02-21T06:29:11;100575.34;;;1.38;78.18
76311;BME280;76681;59.304;18.294;2024-02-21T06:31:39;100585.66;;;1.38;77.96
76311;BME280;76681;59.304;18.294;2024-02-21T06:34:06;100583.09;;;1.38;78.30
76311;BME280;76681;59.304;18.294;2024-02-21T06:36:33;100585.69;;;1.40;78.62
76311;BME280;76681;59.304;18.294;2024-02-21T06:39:00;100580.53;;;1.41;78.24
76311;BME280;76681;59.304;18.294;2024-02-21T06:41:31;100574.56;;;1.42;78.46
76311;BME280;76681;59.304;18.294;2024-02-21T06:43:59;100577.16;;;1.44;78.35
76311;BME280;76681;59.304;18.294;2024-02-21T06:46:27;100569.44;;;1.45;78.42
76311;BME280;76681;59.304;18.294;2024-02-21T06:48:55;100561.72;;;1.45;78.60
76311;BME280;76681;59.304;18.294;2024-02-21T06:51:22;100569.44;;;1.47;78.70
76311;BME280;76681;59.304;18.294;2024-02-21T06:53:49;100570.34;;;1.49;78.49
76311;BME280;76681;59.304;18.294;2024-02-21T06:56:16;100566.03;;;1.50;78.76
76311;BME280;76681;59.304;18.294;2024-02-21T06:58:45;100569.50;;;1.52;79.00
76311;BME280;76681;59.304;18.294;2024-02-21T07:01:12;100569.50;;;1.52;78.51
76311;BME280;76681;59.304;18.294;2024-02-21T07:03:39;100558.34;;;1.54;78.60
76311;BME280;76681;59.304;18.294;2024-02-21T07:06:05;100560.09;;;1.55;79.01
76311;BME280;76681;59.304;18.294;2024-02-21T07:08:32;100554.94;;;1.57;78.78
76311;BME280;76681;59.304;18.294;2024-02-21T07:10:59;100550.66;;;1.59;78.77
76311;BME280;76681;59.304;18.294;2024-02-21T07:13:26;100545.50;;;1.59;78.86
76311;BME280;76681;59.304;18.294;2024-02-21T07:15:54;100544.66;;;1.60;78.79
76311;BME280;76681;59.304;18.294;2024-02-21T07:18:21;100536.06;;;1.61;78.93
76311;BME280;76681;59.304;18.294;2024-02-21T07:20:49;100531.81;;;1.63;78.46
76311;BME280;76681;59.304;18.294;2024-02-21T07:23:16;100523.22;;;1.64;78.47
76311;BME280;76681;59.304;18.294;2024-02-21T07:25:43;100512.91;;;1.64;78.58
76311;BME280;76681;59.304;18.294;2024-02-21T07:28:10;100510.34;;;1.65;78.79
76311;BME280;76681;59.304;18.294;2024-02-21T07:30:38;100506.03;;;1.66;78.63
76311;BME280;76681;59.304;18.294;2024-02-21T07:33:06;100511.19;;;1.67;78.95
76311;BME280;76681;59.304;18.294;2024-02-21T07:35:33;100502.59;;;1.67;79.19
76311;BME280;76681;59.304;18.294;2024-02-21T07:38:03;100507.78;;;1.70;79.01
76311;BME280;76681;59.304;18.294;2024-02-21T07:40:30;100507.81;;;1.73;78.75
76311;BME280;76681;59.304;18.294;2024-02-21T07:42:57;100503.53;;;1.74;78.79
76311;BME280;76681;59.304;18.294;2024-02-21T07:45:24;100506.13;;;1.75;78.74
76311;BME280;76681;59.304;18.294;2024-02-21T07:47:52;100500.97;;;1.75;78.89
76311;BME280;76681;59.304;18.294;2024-02-21T07:50:20;100506.16;;;1.78;79.14
76311;BME280;76681;59.304;18.294;2024-02-21T07:52:47;100505.31;;;1.79;78.90
76311;BME280;76681;59.304;18.294;2024-02-21T07:55:14;100504.47;;;1.82;78.77
76311;BME280;76681;59.304;18.294;2024-02-21T07:57:41;100504.47;;;1.82;78.83
76311;BME280;76681;59.304;18.294;2024-02-21T08:00:08;100504.47;;;1.83;78.71
76311;BME280;76681;59.304;18.294;2024-02-21T08:02:39;100505.38;;;1.85;78.68
76311;BME280;76681;59.304;18.294;2024-02-21T08:05:06;100495.03;;;1.85;79.00
76311;BME280;76681;59.304;18.294;2024-02-21T08:07:34;100491.63;;;1.88;78.93
76311;BME280;76681;59.304;18.294;2024-02-21T08:10:01;100490.75;;;1.89;78.64
76311;BME280;76681;59.304;18.294;2024-02-21T08:12:28;100489.91;;;1.90;78.90
76311;BME280;76681;59.304;18.294;2024-02-21T08:14:55;100489.94;;;1.91;79.06
76311;BME280;76681;59.304;18.294;2024-02-21T08:17:22;100495.94;;;1.92;78.58
76311;BME280;76681;59.304;18.294;2024-02-21T08:19:48;100495.09;;;1.93;79.09
76311;BME280;76681;59.304;18.294;2024-02-21T08:22:15;100495.97;;;1.95;78.74
76311;BME280;76681;59.304;18.294;2024-02-21T08:24:44;100491.66;;;1.96;79.15
76311;BME280;76681;59.304;18.294;2024-02-21T08:27:10;100492.53;;;1.95;78.67
76311;BME280;76681;59.304;18.294;2024-02-21T08:29:37;100495.13;;;1.98;78.83
76311;BME280;76681;59.304;18.294;2024-02-21T08:32:04;100482.19;;;1.91;78.73
76311;BME280;76681;59.304;18.294;2024-02-21T08:34:31;100490.84;;;2.00;79.14
76311;BME280;76681;59.304;18.294;2024-02-21T08:36:59;100494.31;;;2.02;79.10
76311;BME280;76681;59.304;18.294;2024-02-21T08:39:26;100497.75;;;2.04;79.07
76311;BME280;76681;59.304;18.294;2024-02-21T08:41:55;100492.59;;;2.04;79.34
76311;BME280;76681;59.304;18.294;2024-02-21T08:44:22;100493.47;;;2.06;79.22
76311;BME280;76681;59.304;18.294;2024-02-21T08:46:51;100494.38;;;2.08;79.22
76311;BME280;76681;59.304;18.294;2024-02-21T08:49:18;100490.91;;;2.09;79.35
76311;BME280;76681;59.304;18.294;2024-02-21T08:51:45;100496.09;;;2.10;79.55
76311;BME280;76681;59.304;18.294;2024-02-21T08:54:12;100489.22;;;2.11;79.40
76311;BME280;76681;59.304;18.294;2024-02-21T08:56:38;100483.19;;;2.09;79.41
76311;BME280;76681;59.304;18.294;2024-02-21T08:59:07;100488.38;;;2.15;79.24
76311;BME280;76681;59.304;18.294;2024-02-21T09:01:34;100484.97;;;2.16;79.34
76311;BME280;76681;59.304;18.294;2024-02-21T09:04:00;100481.53;;;2.17;78.97
76311;BME280;76681;59.304;18.294;2024-02-21T09:06:28;100472.91;;;2.18;79.30
76311;BME280;76681;59.304;18.294;2024-02-21T09:08:56;100472.09;;;2.19;79.26
76311;BME280;76681;59.304;18.294;2024-02-21T09:11:23;100472.09;;;2.22;79.25
76311;BME280;76681;59.304;18.294;2024-02-21T09:13:50;100469.50;;;2.22;79.36
76311;BME280;76681;59.304;18.294;2024-02-21T09:16:18;100467.78;;;2.24;79.29
76311;BME280;76681;59.304;18.294;2024-02-21T09:18:45;100462.63;;;2.24;79.31
76311;BME280;76681;59.304;18.294;2024-02-21T09:21:12;100458.34;;;2.26;79.21
76311;BME280;76681;59.304;18.294;2024-02-21T09:23:39;100452.34;;;2.27;79.50
76311;BME280;76681;59.304;18.294;2024-02-21T09:26:06;100453.19;;;2.29;79.16
76311;BME280;76681;59.304;18.294;2024-02-21T09:28:35;100453.22;;;2.31;79.10
76311;BME280;76681;59.304;18.294;2024-02-21T09:31:02;100440.31;;;2.32;79.22
76311;BME280;76681;59.304;18.294;2024-02-21T09:33:30;100436.88;;;2.33;79.14
76311;BME280;76681;59.304;18.294;2024-02-21T09:35:57;100436.03;;;2.34;79.27
76311;BME280;76681;59.304;18.294;2024-02-21T09:38:25;100439.50;;;2.36;79.32
76311;BME280;76681;59.304;18.294;2024-02-21T09:40:58;100428.25;;;2.31;79.44
76311;BME280;76681;59.304;18.294;2024-02-21T09:43:25;100418.78;;;2.27;79.07
76311;BME280;76681;59.304;18.294;2024-02-21T09:45:54;100434.34;;;2.40;79.31
76311;BME280;76681;59.304;18.294;2024-02-21T09:48:41;100425.72;;;2.44;79.41
76311;BME280;76681;59.304;18.294;2024-02-21T09:51:10;100418.00;;;2.44;79.03
76311;BME280;76681;59.304;18.294;2024-02-21T09:53:37;100431.78;;;2.46;79.38
76311;BME280;76681;59.304;18.294;2024-02-21T09:56:07;100424.91;;;2.48;79.21
76311;BME280;76681;59.304;18.294;2024-02-21T09:58:34;100416.28;;;2.46;79.21
76311;BME280;76681;59.304;18.294;2024-02-21T10:01:01;100417.19;;;2.51;79.19
76311;BME280;76681;59.304;18.294;2024-02-21T10:03:33;100418.03;;;2.51;79.46
76311;BME280;76681;59.304;18.294;2024-02-21T10:06:00;100415.44;;;2.50;79.35
76311;BME280;76681;59.304;18.294;2024-02-21T10:08:28;100415.44;;;2.53;79.15
76311;BME280;76681;59.304;18.294;2024-02-21T10:10:55;100420.66;;;2.56;79.37
76311;BME280;76681;59.304;18.294;2024-02-21T10:13:25;100410.31;;;2.56;79.43
76311;BME280;76681;59.304;18.294;2024-02-21T10:16:06;100408.59;;;2.58;79.37
76311;BME280;76681;59.304;18.294;2024-02-21T10:18:35;100406.88;;;2.57;79.57
76311;BME280;76681;59.304;18.294;2024-02-21T10:21:03;100406.88;;;2.60;79.23
76311;BME280;76681;59.304;18.294;2024-02-21T10:23:41;100388.75;;;2.52;79.37
76311;BME280;76681;59.304;18.294;2024-02-21T10:26:08;100401.72;;;2.63;79.28
76311;BME280;76681;59.304;18.294;2024-02-21T10:28:36;100399.16;;;2.63;79.32
76311;BME280;76681;59.304;18.294;2024-02-21T10:31:07;100386.22;;;2.57;79.27
76311;BME280;76681;59.304;18.294;2024-02-21T10:33:36;100398.31;;;2.67;79.10
76311;BME280;76681;59.304;18.294;2024-02-21T10:36:07;100400.03;;;2.68;79.22
76311;BME280;76681;59.304;18.294;2024-02-21T10:38:35;100396.56;;;2.66;79.36
76311;BME280;76681;59.304;18.294;2024-02-21T10:41:03;100397.44;;;2.70;79.15
76311;BME280;76681;59.304;18.294;2024-02-21T10:43:37;100392.25;;;2.70;79.02
76311;BME280;76681;59.304;18.294;2024-02-21T10:46:05;100390.56;;;2.70;79.05
76311;BME280;76681;59.304;18.294;2024-02-21T10:48:41;100385.41;;;2.70;78.93
76311;BME280;76681;59.304;18.294;2024-02-21T10:51:14;100388.84;;;2.72;78.98
76311;BME280;76681;59.304;18.294;2024-02-21T10:53:44;100382.84;;;2.73;79.08
76311;BME280;76681;59.304;18.294;2024-02-21T10:56:21;100384.53;;;2.74;78.92
76311;BME280;76681;59.304;18.294;2024-02-21T10:58:49;100371.63;;;2.74;78.98
76311;BME280;76681;59.304;18.294;2024-02-21T11:01:18;100365.59;;;2.75;78.81
76311;BME280;76681;59.304;18.294;2024-02-21T11:03:48;100367.34;;;2.76;78.95
76311;BME280;76681;59.304;18.294;2024-02-21T11:06:17;100355.25;;;2.69;79.01
76311;BME280;76681;59.304;18.294;2024-02-21T11:08:44;100359.59;;;2.79;78.90
76311;BME280;76681;59.304;18.294;2024-02-21T11:11:13;100357.88;;;2.80;78.87
76311;BME280;76681;59.304;18.294;2024-02-21T11:13:43;100356.13;;;2.80;78.97
76311;BME280;76681;59.304;18.294;2024-02-21T11:16:20;100353.56;;;2.80;79.07
76311;BME280;76681;59.304;18.294;2024-02-21T11:18:49;100358.72;;;2.83;78.94
76311;BME280;76681;59.304;18.294;2024-02-21T11:21:16;100341.50;;;2.81;78.78
76311;BME280;76681;59.304;18.294;2024-02-21T11:23:43;100353.56;;;2.85;78.89
76311;BME280;76681;59.304;18.294;2024-02-21T11:26:18;100351.84;;;2.86;78.77
76311;BME280;76681;59.304;18.294;2024-02-21T11:28:56;100355.28;;;2.86;78.88
76311;BME280;76681;59.304;18.294;2024-02-21T11:31:23;100355.31;;;2.88;78.97
76311;BME280;76681;59.304;18.294;2024-02-21T11:33:54;100341.50;;;2.86;79.21
76311;BME280;76681;59.304;18.294;2024-02-21T11:36:25;100354.47;;;2.90;78.98
76311;BME280;76681;59.304;18.294;2024-02-21T11:38:53;100347.53;;;2.89;78.96
76311;BME280;76681;59.304;18.294;2024-02-21T11:41:20;100346.69;;;2.92;79.02
76311;BME280;76681;59.304;18.294;2024-02-21T11:43:48;100344.97;;;2.94;79.01
76311;BME280;76681;59.304;18.294;2024-02-21T11:46:16;100334.63;;;2.94;79.15
76311;BME280;76681;59.304;18.294;2024-02-21T11:48:43;100336.34;;;2.95;79.04
76311;BME280;76681;59.304;18.294;2024-02-21T11:51:24;100328.63;;;2.96;79.11
76311;BME280;76681;59.304;18.294;2024-02-21T11:53:52;100331.19;;;2.98;78.97
76311;BME280;76681;59.304;18.294;2024-02-21T11:56:19;100316.53;;;2.92;79.17
76311;BME280;76681;59.304;18.294;2024-02-21T11:58:46;100319.13;;;2.97;79.02
76311;BME280;76681;59.304;18.294;2024-02-21T12:01:13;100317.44;;;2.99;79.05
76311;BME280;76681;59.304;18.294;2024-02-21T12:03:40;100311.38;;;2.94;78.95
76311;BME280;76681;59.304;18.294;2024-02-21T12:06:07;100316.53;;;2.98;78.92
76311;BME280;76681;59.304;18.294;2024-02-21T12:08:42;100319.13;;;3.00;79.08
76311;BME280;76681;59.304;18.294;2024-02-21T12:11:19;100325.16;;;3.00;78.96
76311;BME280;76681;59.304;18.294;2024-02-21T12:13:46;100318.28;;;2.99;79.16
76311;BME280;76681;59.304;18.294;2024-02-21T12:16:15;100316.56;;;3.01;79.19
76311;BME280;76681;59.304;18.294;2024-02-21T12:18:43;100312.25;;;2.99;79.07
76311;BME280;76681;59.304;18.294;2024-02-21T12:21:10;100315.69;;;3.02;79.05
76311;BME280;76681;59.304;18.294;2024-02-21T12:23:38;100313.97;;;3.03;79.15
76311;BME280;76681;59.304;18.294;2024-02-21T12:26:06;100315.69;;;3.04;79.25
76311;BME280;76681;59.304;18.294;2024-02-21T12:28:34;100315.69;;;3.04;79.05
76311;BME280;76681;59.304;18.294;2024-02-21T12:31:00;100312.25;;;3.05;78.99
76311;BME280;76681;59.304;18.294;2024-02-21T12:33:30;100319.13;;;3.06;79.14
76311;BME280;76681;59.304;18.294;2024-02-21T12:35:57;100309.66;;;3.06;79.08
76311;BME280;76681;59.304;18.294;2024-02-21T12:38:24;100320.00;;;3.08;79.23
76311;BME280;76681;59.304;18.294;2024-02-21T12:40:51;100313.13;;;3.09;79.19
76311;BME280;76681;59.304;18.294;2024-02-21T12:43:19;100306.22;;;3.11;79.25
76311;BME280;76681;59.304;18.294;2024-02-21T12:45:48;100301.06;;;3.11;79.28
76311;BME280;76681;59.304;18.294;2024-02-21T12:48:15;100305.38;;;3.13;79.45
76311;BME280;76681;59.304;18.294;2024-02-21T12:50:48;100302.78;;;3.13;79.47
76311;BME280;76681;59.304;18.294;2024-02-21T12:53:16;100303.63;;;3.15;79.44